sensor_id;sensor_type;location;lat;lon;timestamp;temperature;humidity
16408;DHT22;8313;49.894;8.084;2023-02-13T00:01:51;6.30;99.90
16408;DHT22;8313;49.894;8.084;2023-02-13T00:04:17;6.30;99.90
16408;DHT22;8313;49.894;8.084;2023-02-13T00:06:43;6.40;99.90
16408;DHT22;8313;49.894;8.084;2023-02-13T00:09:09;6.40;99.90
16408;DHT22;8313;49.894;8.084;2023-02-13T00:11:36;6.40;99.90
16408;DHT22;8313;49.894;8.084;2023-02-13T00:14:01;6.20;99.90
16408;DHT22;8313;49.894;8.084;2023-02-13T00:16:27;6.30;99.90
16408;DHT22;8313;49.894;8.084;2023-02-13T00:18:53;6.20;99.90
16408;DHT22;8313;49.894;8.084;2023-02-13T00:21:18;6.20;99.90
16408;DHT22;8313;49.894;8.084;2023-02-13T00:23:44;6.20;99.90
16408;DHT22;8313;49.894;8.084;2023-02-13T00:26:12;6.20;99.90
16408;DHT22;8313;49.894;8.084;2023-02-13T00:28:42;6.20;99.90
16408;DHT22;8313;49.894;8.084;2023-02-13T00:31:10;6.20;99.90
16408;DHT22;8313;49.894;8.084;2023-02-13T00:33:37;6.20;99.90
16408;DHT22;8313;49.894;8.084;2023-02-13T00:36:14;6.20;99.90
16408;DHT22;8313;49.894;8.084;2023-02-13T00:38:41;6.20;99.90
16408;DHT22;8313;49.894;8.084;2023-02-13T00:41:07;6.10;99.90
16408;DHT22;8313;49.894;8.084;2023-02-13T00:43:34;6.10;99.90
16408;DHT22;8313;49.894;8.084;2023-02-13T00:46:00;6.00;99.90
16408;DHT22;8313;49.894;8.084;2023-02-13T00:48:27;6.00;99.90
16408;DHT22;8313;49.894;8.084;2023-02-13T00:50:53;5.90;99.90
16408;DHT22;8313;49.894;8.084;2023-02-13T00:53:23;5.80;99.90
16408;DHT22;8313;49.894;8.084;2023-02-13T00:55:49;5.90;99.90
16408;DHT22;8313;49.894;8.084;2023-02-13T00:58:15;5.90;99.90
16408;DHT22;8313;49.894;8.084;2023-02-13T01:00:41;5.90;99.90
16408;DHT22;8313;49.894;8.084;2023-02-13T01:03:08;5.90;99.90
16408;DHT22;8313;49.894;8.084;2023-02-13T01:05:34;5.90;99.90
16408;DHT22;8313;49.894;8.084;2023-02-13T01:08:00;5.90;99.90
16408;DHT22;8313;49.894;8.084;2023-02-13T01:10:26;5.90;99.90
16408;DHT22;8313;49.894;8.084;2023-02-13T01:12:52;5.90;99.90
16408;DHT22;8313;49.894;8.084;2023-02-13T01:15:18;5.90;99.90
16408;DHT22;8313;49.894;8.084;2023-02-13T01:17:44;5.80;99.90
16408;DHT22;8313;49.894;8.084;2023-02-13T01:20:12;5.80;99.90
16408;DHT22;8313;49.894;8.084;2023-02-13T01:22:38;5.80;99.90
16408;DHT22;8313;49.894;8.084;2023-02-13T01:25:05;5.70;99.90
16408;DHT22;8313;49.894;8.084;2023-02-13T01:27:31;5.70;99.90
16408;DHT22;8313;49.894;8.084;2023-02-13T01:29:57;5.70;99.90
16408;DHT22;8313;49.894;8.084;2023-02-13T01:32:23;5.60;99.90
16408;DHT22;8313;49.894;8.084;2023-02-13T01:34:49;5.60;99.90
16408;DHT22;8313;49.894;8.084;2023-02-13T01:37:15;5.60;99.90
16408;DHT22;8313;49.894;8.084;2023-02-13T01:39:40;5.70;99.90
16408;DHT22;8313;49.894;8.084;2023-02-13T01:42:23;5.60;99.90
16408;DHT22;8313;49.894;8.084;2023-02-13T01:44:52;5.60;99.90
16408;DHT22;8313;49.894;8.084;2023-02-13T01:47:39;5.60;99.90
16408;DHT22;8313;49.894;8.084;2023-02-13T01:50:13;5.50;99.90
16408;DHT22;8313;49.894;8.084;2023-02-13T01:52:58;5.50;99.90
16408;DHT22;8313;49.894;8.084;2023-02-13T01:55:25;5.50;99.90
16408;DHT22;8313;49.894;8.084;2023-02-13T01:57:57;5.50;99.90
16408;DHT22;8313;49.894;8.084;2023-02-13T02:00:24;5.50;99.90
16408;DHT22;8313;49.894;8.084;2023-02-13T02:02:54;5.50;99.90
16408;DHT22;8313;49.894;8.084;2023-02-13T02:05:26;5.50;99.90
16408;DHT22;8313;49.894;8.084;2023-02-13T02:07:55;5.50;99.90
16408;DHT22;8313;49.894;8.084;2023-02-13T02:10:23;5.50;99.90
16408;DHT22;8313;49.894;8.084;2023-02-13T02:12:56;5.40;99.90
16408;DHT22;8313;49.894;8.084;2023-02-13T02:15:23;5.40;99.90
16408;DHT22;8313;49.894;8.084;2023-02-13T02:17:49;5.40;99.90
16408;DHT22;8313;49.894;8.084;2023-02-13T02:23:39;5.40;99.90
16408;DHT22;8313;49.894;8.084;2023-02-13T02:43:03;5.30;99.90
16408;DHT22;8313;49.894;8.084;2023-02-13T02:45:38;5.30;99.90
16408;DHT22;8313;49.894;8.084;2023-02-13T02:54:02;5.20;99.90
16408;DHT22;8313;49.894;8.084;2023-02-13T02:56:50;5.10;99.90
16408;DHT22;8313;49.894;8.084;2023-02-13T02:59:19;5.10;99.90
16408;DHT22;8313;49.894;8.084;2023-02-13T03:02:04;5.10;99.90
16408;DHT22;8313;49.894;8.084;2023-02-13T03:04:52;5.10;99.90
16408;DHT22;8313;49.894;8.084;2023-02-13T03:07:37;5.10;99.90
16408;DHT22;8313;49.894;8.084;2023-02-13T03:10:09;5.10;99.90
16408;DHT22;8313;49.894;8.084;2023-02-13T03:16:02;5.10;99.90
16408;DHT22;8313;49.894;8.084;2023-02-13T03:18:50;5.00;99.90
16408;DHT22;8313;49.894;8.084;2023-02-13T03:33:25;5.00;99.90
16408;DHT22;8313;49.894;8.084;2023-02-13T03:39:11;4.90;99.90
16408;DHT22;8313;49.894;8.084;2023-02-13T03:41:56;4.80;99.90
16408;DHT22;8313;49.894;8.084;2023-02-13T03:46:59;4.90;99.90
16408;DHT22;8313;49.894;8.084;2023-02-13T03:49:34;4.90;99.90
16408;DHT22;8313;49.894;8.084;2023-02-13T03:57:43;4.90;99.90
16408;DHT22;8313;49.894;8.084;2023-02-13T04:00:33;4.80;99.90
16408;DHT22;8313;49.894;8.084;2023-02-13T04:03:12;4.80;99.90
16408;DHT22;8313;49.894;8.084;2023-02-13T04:05:46;4.80;99.90
16408;DHT22;8313;49.894;8.084;2023-02-13T04:08:12;4.80;99.90
16408;DHT22;8313;49.894;8.084;2023-02-13T04:10:45;4.80;99.90
16408;DHT22;8313;49.894;8.084;2023-02-13T04:15:55;4.80;99.90
16408;DHT22;8313;49.894;8.084;2023-02-13T04:18:26;4.80;99.90
16408;DHT22;8313;49.894;8.084;2023-02-13T04:20:52;4.70;99.90
16408;DHT22;8313;49.894;8.084;2023-02-13T04:23:18;4.70;99.90
16408;DHT22;8313;49.894;8.084;2023-02-13T04:25:47;4.80;99.90
16408;DHT22;8313;49.894;8.084;2023-02-13T04:28:14;4.70;99.90
16408;DHT22;8313;49.894;8.084;2023-02-13T04:30:40;4.70;99.90
16408;DHT22;8313;49.894;8.084;2023-02-13T04:33:06;4.70;99.90
16408;DHT22;8313;49.894;8.084;2023-02-13T04:35:32;4.70;99.90
16408;DHT22;8313;49.894;8.084;2023-02-13T04:37:57;4.70;99.90
16408;DHT22;8313;49.894;8.084;2023-02-13T04:40:23;4.60;99.90
16408;DHT22;8313;49.894;8.084;2023-02-13T04:42:49;4.70;99.90
16408;DHT22;8313;49.894;8.084;2023-02-13T04:45:15;4.60;99.90
16408;DHT22;8313;49.894;8.084;2023-02-13T04:47:41;4.60;99.90
16408;DHT22;8313;49.894;8.084;2023-02-13T04:50:07;4.60;99.90
16408;DHT22;8313;49.894;8.084;2023-02-13T04:52:33;4.50;99.90
16408;DHT22;8313;49.894;8.084;2023-02-13T04:54:59;4.60;99.90
16408;DHT22;8313;49.894;8.084;2023-02-13T04:57:24;4.50;99.90
16408;DHT22;8313;49.894;8.084;2023-02-13T04:59:50;4.50;99.90
16408;DHT22;8313;49.894;8.084;2023-02-13T05:02:15;4.50;99.90
16408;DHT22;8313;49.894;8.084;2023-02-13T05:04:41;4.40;99.90
16408;DHT22;8313;49.894;8.084;2023-02-13T05:07:07;4.30;99.90
16408;DHT22;8313;49.894;8.084;2023-02-13T05:09:32;4.40;99.90
16408;DHT22;8313;49.894;8.084;2023-02-13T05:11:58;4.40;99.90
16408;DHT22;8313;49.894;8.084;2023-02-13T05:14:24;4.40;99.90
16408;DHT22;8313;49.894;8.084;2023-02-13T05:16:49;4.40;99.90
16408;DHT22;8313;49.894;8.084;2023-02-13T05:19:15;4.30;99.90
16408;DHT22;8313;49.894;8.084;2023-02-13T05:21:41;4.20;99.90
16408;DHT22;8313;49.894;8.084;2023-02-13T05:24:25;4.20;99.90
16408;DHT22;8313;49.894;8.084;2023-02-13T05:26:51;4.30;99.90
16408;DHT22;8313;49.894;8.084;2023-02-13T05:29:17;4.20;99.90
16408;DHT22;8313;49.894;8.084;2023-02-13T05:31:43;4.30;99.90
16408;DHT22;8313;49.894;8.084;2023-02-13T05:34:09;4.30;99.90
16408;DHT22;8313;49.894;8.084;2023-02-13T05:36:34;4.20;99.90
16408;DHT22;8313;49.894;8.084;2023-02-13T05:39:00;4.20;99.90
16408;DHT22;8313;49.894;8.084;2023-02-13T05:41:26;4.30;99.90
16408;DHT22;8313;49.894;8.084;2023-02-13T05:43:52;4.30;99.90
16408;DHT22;8313;49.894;8.084;2023-02-13T05:46:17;4.30;99.90
16408;DHT22;8313;49.894;8.084;2023-02-13T05:48:43;4.30;99.90
16408;DHT22;8313;49.894;8.084;2023-02-13T05:51:09;4.30;99.90
16408;DHT22;8313;49.894;8.084;2023-02-13T05:53:35;4.30;99.90
16408;DHT22;8313;49.894;8.084;2023-02-13T05:56:02;4.30;99.90
16408;DHT22;8313;49.894;8.084;2023-02-13T05:58:28;4.30;99.90
16408;DHT22;8313;49.894;8.084;2023-02-13T06:00:58;4.20;99.90
16408;DHT22;8313;49.894;8.084;2023-02-13T06:03:25;4.20;99.90
16408;DHT22;8313;49.894;8.084;2023-02-13T06:05:52;4.20;99.90
16408;DHT22;8313;49.894;8.084;2023-02-13T06:08:18;4.20;99.90
16408;DHT22;8313;49.894;8.084;2023-02-13T06:10:44;4.10;99.90
16408;DHT22;8313;49.894;8.084;2023-02-13T06:13:10;4.20;99.90
16408;DHT22;8313;49.894;8.084;2023-02-13T06:15:36;4.10;99.90
16408;DHT22;8313;49.894;8.084;2023-02-13T06:18:01;4.20;99.90
16408;DHT22;8313;49.894;8.084;2023-02-13T06:20:27;4.10;99.90
16408;DHT22;8313;49.894;8.084;2023-02-13T06:22:53;4.10;99.90
16408;DHT22;8313;49.894;8.084;2023-02-13T06:25:19;4.10;99.90
16408;DHT22;8313;49.894;8.084;2023-02-13T06:27:45;4.10;99.90
16408;DHT22;8313;49.894;8.084;2023-02-13T06:30:12;4.00;99.90
16408;DHT22;8313;49.894;8.084;2023-02-13T06:32:38;4.00;99.90
16408;DHT22;8313;49.894;8.084;2023-02-13T06:35:04;4.00;99.90
16408;DHT22;8313;49.894;8.084;2023-02-13T06:37:30;4.10;99.90
16408;DHT22;8313;49.894;8.084;2023-02-13T06:39:56;4.10;99.90
16408;DHT22;8313;49.894;8.084;2023-02-13T06:42:21;4.10;99.90
16408;DHT22;8313;49.894;8.084;2023-02-13T06:44:47;4.10;99.90
16408;DHT22;8313;49.894;8.084;2023-02-13T06:47:13;4.10;99.90
16408;DHT22;8313;49.894;8.084;2023-02-13T06:49:38;4.10;99.90
16408;DHT22;8313;49.894;8.084;2023-02-13T06:52:04;4.10;99.90
16408;DHT22;8313;49.894;8.084;2023-02-13T06:54:30;3.90;99.90
16408;DHT22;8313;49.894;8.084;2023-02-13T06:56:56;4.00;99.90
16408;DHT22;8313;49.894;8.084;2023-02-13T06:59:21;4.00;99.90
16408;DHT22;8313;49.894;8.084;2023-02-13T07:01:47;4.00;99.90
16408;DHT22;8313;49.894;8.084;2023-02-13T07:04:13;3.90;99.90
16408;DHT22;8313;49.894;8.084;2023-02-13T07:06:38;4.00;99.90
16408;DHT22;8313;49.894;8.084;2023-02-13T07:09:04;4.00;99.90
16408;DHT22;8313;49.894;8.084;2023-02-13T07:11:30;4.00;99.90
16408;DHT22;8313;49.894;8.084;2023-02-13T07:13:56;4.00;99.90
16408;DHT22;8313;49.894;8.084;2023-02-13T07:16:22;4.00;99.90
16408;DHT22;8313;49.894;8.084;2023-02-13T07:18:47;4.00;99.90
16408;DHT22;8313;49.894;8.084;2023-02-13T07:21:13;4.00;99.90
16408;DHT22;8313;49.894;8.084;2023-02-13T07:23:39;4.00;99.90
16408;DHT22;8313;49.894;8.084;2023-02-13T07:26:05;4.00;99.90
16408;DHT22;8313;49.894;8.084;2023-02-13T07:28:31;4.00;99.90
16408;DHT22;8313;49.894;8.084;2023-02-13T07:30:57;4.00;99.90
16408;DHT22;8313;49.894;8.084;2023-02-13T07:33:27;4.10;99.90
16408;DHT22;8313;49.894;8.084;2023-02-13T07:35:53;4.10;99.90
16408;DHT22;8313;49.894;8.084;2023-02-13T07:38:19;4.10;99.90
16408;DHT22;8313;49.894;8.084;2023-02-13T07:40:45;4.10;99.90
16408;DHT22;8313;49.894;8.084;2023-02-13T07:43:11;4.10;99.90
16408;DHT22;8313;49.894;8.084;2023-02-13T07:45:37;4.20;99.90
16408;DHT22;8313;49.894;8.084;2023-02-13T07:48:03;4.20;99.90
16408;DHT22;8313;49.894;8.084;2023-02-13T07:50:29;4.20;99.90
16408;DHT22;8313;49.894;8.084;2023-02-13T07:52:56;4.20;99.90
16408;DHT22;8313;49.894;8.084;2023-02-13T07:55:22;4.20;99.90
16408;DHT22;8313;49.894;8.084;2023-02-13T07:57:48;4.20;99.90
16408;DHT22;8313;49.894;8.084;2023-02-13T08:00:15;4.30;99.90
16408;DHT22;8313;49.894;8.084;2023-02-13T08:02:41;4.30;99.90
16408;DHT22;8313;49.894;8.084;2023-02-13T08:05:07;4.30;99.90
16408;DHT22;8313;49.894;8.084;2023-02-13T08:07:33;4.40;99.90
16408;DHT22;8313;49.894;8.084;2023-02-13T08:09:59;4.40;99.90
16408;DHT22;8313;49.894;8.084;2023-02-13T08:12:44;4.50;99.90
16408;DHT22;8313;49.894;8.084;2023-02-13T08:15:14;4.50;99.90
16408;DHT22;8313;49.894;8.084;2023-02-13T08:17:40;4.60;99.90
16408;DHT22;8313;49.894;8.084;2023-02-13T08:20:07;4.70;99.90
16408;DHT22;8313;49.894;8.084;2023-02-13T08:22:37;4.70;99.90
16408;DHT22;8313;49.894;8.084;2023-02-13T08:25:04;4.70;99.90
16408;DHT22;8313;49.894;8.084;2023-02-13T08:27:29;4.80;99.90
16408;DHT22;8313;49.894;8.084;2023-02-13T08:29:59;4.90;99.90
16408;DHT22;8313;49.894;8.084;2023-02-13T08:32:25;5.00;99.90
16408;DHT22;8313;49.894;8.084;2023-02-13T08:34:50;5.00;99.90
16408;DHT22;8313;49.894;8.084;2023-02-13T08:37:16;5.00;99.90
16408;DHT22;8313;49.894;8.084;2023-02-13T08:39:43;5.10;99.90
16408;DHT22;8313;49.894;8.084;2023-02-13T08:42:08;5.20;99.90
16408;DHT22;8313;49.894;8.084;2023-02-13T08:44:34;5.20;99.90
16408;DHT22;8313;49.894;8.084;2023-02-13T08:47:00;5.30;99.90
16408;DHT22;8313;49.894;8.084;2023-02-13T08:49:32;5.40;99.90
16408;DHT22;8313;49.894;8.084;2023-02-13T08:52:00;5.40;99.90
16408;DHT22;8313;49.894;8.084;2023-02-13T08:54:26;5.50;99.90
16408;DHT22;8313;49.894;8.084;2023-02-13T08:56:53;5.60;99.90
16408;DHT22;8313;49.894;8.084;2023-02-13T08:59:19;5.60;99.90
16408;DHT22;8313;49.894;8.084;2023-02-13T09:01:45;5.70;99.90
16408;DHT22;8313;49.894;8.084;2023-02-13T09:04:11;5.80;99.90
16408;DHT22;8313;49.894;8.084;2023-02-13T09:06:40;5.90;99.90
16408;DHT22;8313;49.894;8.084;2023-02-13T09:09:06;6.00;99.90
16408;DHT22;8313;49.894;8.084;2023-02-13T09:11:32;6.00;99.90
16408;DHT22;8313;49.894;8.084;2023-02-13T09:13:58;6.10;99.90
16408;DHT22;8313;49.894;8.084;2023-02-13T09:16:23;6.10;99.90
16408;DHT22;8313;49.894;8.084;2023-02-13T09:18:50;6.10;99.90
16408;DHT22;8313;49.894;8.084;2023-02-13T09:21:18;6.20;99.90
16408;DHT22;8313;49.894;8.084;2023-02-13T09:23:44;6.20;99.90
16408;DHT22;8313;49.894;8.084;2023-02-13T09:26:12;6.30;99.90
16408;DHT22;8313;49.894;8.084;2023-02-13T09:28:39;6.50;99.90
16408;DHT22;8313;49.894;8.084;2023-02-13T09:31:16;6.60;99.90
16408;DHT22;8313;49.894;8.084;2023-02-13T09:33:43;6.70;99.90
16408;DHT22;8313;49.894;8.084;2023-02-13T09:36:12;6.70;99.90
16408;DHT22;8313;49.894;8.084;2023-02-13T09:38:39;6.70;99.90
16408;DHT22;8313;49.894;8.084;2023-02-13T09:41:18;6.80;99.90
16408;DHT22;8313;49.894;8.084;2023-02-13T09:46:36;7.10;99.90
16408;DHT22;8313;49.894;8.084;2023-02-13T09:49:15;7.20;99.90
16408;DHT22;8313;49.894;8.084;2023-02-13T09:51:44;7.20;99.90
16408;DHT22;8313;49.894;8.084;2023-02-13T09:54:14;7.20;99.90
16408;DHT22;8313;49.894;8.084;2023-02-13T10:12:03;7.90;99.90
16408;DHT22;8313;49.894;8.084;2023-02-13T10:14:41;8.00;99.90
16408;DHT22;8313;49.894;8.084;2023-02-13T10:17:20;8.10;99.90
16408;DHT22;8313;49.894;8.084;2023-02-13T10:19:59;8.00;99.90
16408;DHT22;8313;49.894;8.084;2023-02-13T10:22:43;8.10;99.90
16408;DHT22;8313;49.894;8.084;2023-02-13T10:27:59;8.30;99.90
16408;DHT22;8313;49.894;8.084;2023-02-13T10:30:42;8.30;99.90
16408;DHT22;8313;49.894;8.084;2023-02-13T10:33:19;8.50;99.90
16408;DHT22;8313;49.894;8.084;2023-02-13T10:44:33;9.00;99.90
16408;DHT22;8313;49.894;8.084;2023-02-13T10:55:25;9.10;99.90
16408;DHT22;8313;49.894;8.084;2023-02-13T11:03:01;9.80;99.90
16408;DHT22;8313;49.894;8.084;2023-02-13T11:05:36;9.60;99.90
16408;DHT22;8313;49.894;8.084;2023-02-13T11:08:02;9.70;99.90
16408;DHT22;8313;49.894;8.084;2023-02-13T11:10:28;9.60;99.90
16408;DHT22;8313;49.894;8.084;2023-02-13T11:12:54;9.50;99.90
16408;DHT22;8313;49.894;8.084;2023-02-13T11:15:21;9.50;99.90
16408;DHT22;8313;49.894;8.084;2023-02-13T11:17:49;9.50;99.90
16408;DHT22;8313;49.894;8.084;2023-02-13T11:20:41;9.40;99.90
16408;DHT22;8313;49.894;8.084;2023-02-13T11:26:30;9.50;99.90
16408;DHT22;8313;49.894;8.084;2023-02-13T11:28:58;9.40;99.90
16408;DHT22;8313;49.894;8.084;2023-02-13T11:33:55;9.80;99.90
16408;DHT22;8313;49.894;8.084;2023-02-13T11:36:27;9.80;99.90
16408;DHT22;8313;49.894;8.084;2023-02-13T11:41:28;9.60;99.90
16408;DHT22;8313;49.894;8.084;2023-02-13T11:44:00;9.90;99.90
16408;DHT22;8313;49.894;8.084;2023-02-13T11:47:00;10.10;99.90
16408;DHT22;8313;49.894;8.084;2023-02-13T11:49:32;10.40;99.90
16408;DHT22;8313;49.894;8.084;2023-02-13T11:52:05;10.40;99.90
16408;DHT22;8313;49.894;8.084;2023-02-13T11:54:55;10.70;99.90
16408;DHT22;8313;49.894;8.084;2023-02-13T11:57:41;11.00;99.90
16408;DHT22;8313;49.894;8.084;2023-02-13T12:02:52;11.20;99.90
16408;DHT22;8313;49.894;8.084;2023-02-13T12:05:21;11.20;99.90
16408;DHT22;8313;49.894;8.084;2023-02-13T12:07:48;11.00;99.90
16408;DHT22;8313;49.894;8.084;2023-02-13T12:10:21;11.10;99.90
16408;DHT22;8313;49.894;8.084;2023-02-13T12:18:18;11.00;99.90
16408;DHT22;8313;49.894;8.084;2023-02-13T12:26:47;11.10;99.90
16408;DHT22;8313;49.894;8.084;2023-02-13T12:46:32;11.10;99.90
16408;DHT22;8313;49.894;8.084;2023-02-13T12:48:45;11.20;99.90
16408;DHT22;8313;49.894;8.084;2023-02-13T12:51:49;11.10;99.90
16408;DHT22;8313;49.894;8.084;2023-02-13T12:57:15;11.40;99.90
16408;DHT22;8313;49.894;8.084;2023-02-13T13:00:14;11.10;99.90
16408;DHT22;8313;49.894;8.084;2023-02-13T13:08:45;11.60;99.90
16408;DHT22;8313;49.894;8.084;2023-02-13T13:22:33;11.10;99.90
16408;DHT22;8313;49.894;8.084;2023-02-13T13:25:25;11.40;99.90
16408;DHT22;8313;49.894;8.084;2023-02-13T13:28:11;11.60;99.90
16408;DHT22;8313;49.894;8.084;2023-02-13T13:30:39;11.70;99.90
16408;DHT22;8313;49.894;8.084;2023-02-13T13:33:22;11.90;99.90
16408;DHT22;8313;49.894;8.084;2023-02-13T13:49:48;11.60;99.90
16408;DHT22;8313;49.894;8.084;2023-02-13T13:54:47;11.90;99.90
16408;DHT22;8313;49.894;8.084;2023-02-13T13:57:24;12.30;99.90
16408;DHT22;8313;49.894;8.084;2023-02-13T14:03:23;12.60;99.90
16408;DHT22;8313;49.894;8.084;2023-02-13T14:06:04;12.60;99.90
16408;DHT22;8313;49.894;8.084;2023-02-13T14:13:41;12.30;99.90
16408;DHT22;8313;49.894;8.084;2023-02-13T14:16:11;12.30;99.90
16408;DHT22;8313;49.894;8.084;2023-02-13T14:18:37;12.30;99.90
16408;DHT22;8313;49.894;8.084;2023-02-13T14:21:08;12.30;99.90
16408;DHT22;8313;49.894;8.084;2023-02-13T14:23:43;12.20;99.90
16408;DHT22;8313;49.894;8.084;2023-02-13T14:28:57;12.00;99.90
16408;DHT22;8313;49.894;8.084;2023-02-13T14:31:35;12.00;99.90
16408;DHT22;8313;49.894;8.084;2023-02-13T14:36:38;12.10;99.90
16408;DHT22;8313;49.894;8.084;2023-02-13T14:39:27;12.20;99.90
16408;DHT22;8313;49.894;8.084;2023-02-13T14:44:31;12.30;99.90
16408;DHT22;8313;49.894;8.084;2023-02-13T14:47:13;12.20;99.90
16408;DHT22;8313;49.894;8.084;2023-02-13T14:49:44;12.30;99.90
16408;DHT22;8313;49.894;8.084;2023-02-13T14:52:20;12.30;99.90
16408;DHT22;8313;49.894;8.084;2023-02-13T14:54:58;12.30;99.90
16408;DHT22;8313;49.894;8.084;2023-02-13T14:57:30;12.30;99.90
16408;DHT22;8313;49.894;8.084;2023-02-13T15:00:08;12.20;99.90
16408;DHT22;8313;49.894;8.084;2023-02-13T15:02:47;12.20;99.90
16408;DHT22;8313;49.894;8.084;2023-02-13T15:05:15;12.30;99.90
16408;DHT22;8313;49.894;8.084;2023-02-13T15:08:03;12.20;99.90
16408;DHT22;8313;49.894;8.084;2023-02-13T15:10:45;12.20;99.90
16408;DHT22;8313;49.894;8.084;2023-02-13T15:13:16;12.10;99.90
16408;DHT22;8313;49.894;8.084;2023-02-13T15:15:46;12.00;99.90
16408;DHT22;8313;49.894;8.084;2023-02-13T15:18:20;11.90;99.90
16408;DHT22;8313;49.894;8.084;2023-02-13T15:20:47;11.90;99.90
16408;DHT22;8313;49.894;8.084;2023-02-13T15:23:22;11.80;99.90
16408;DHT22;8313;49.894;8.084;2023-02-13T15:26:01;11.70;99.90
16408;DHT22;8313;49.894;8.084;2023-02-13T15:28:28;11.60;99.90
16408;DHT22;8313;49.894;8.084;2023-02-13T15:31:05;11.40;99.90
16408;DHT22;8313;49.894;8.084;2023-02-13T15:33:49;11.50;99.90
16408;DHT22;8313;49.894;8.084;2023-02-13T15:36:26;11.70;99.90
16408;DHT22;8313;49.894;8.084;2023-02-13T15:39:02;11.70;99.90
16408;DHT22;8313;49.894;8.084;2023-02-13T15:41:38;11.80;99.90
16408;DHT22;8313;49.894;8.084;2023-02-13T15:44:05;11.80;99.90
16408;DHT22;8313;49.894;8.084;2023-02-13T15:46:33;11.80;99.90
16408;DHT22;8313;49.894;8.084;2023-02-13T15:49:19;11.90;99.90
16408;DHT22;8313;49.894;8.084;2023-02-13T15:51:46;11.80;99.90
16408;DHT22;8313;49.894;8.084;2023-02-13T15:54:31;11.80;99.90
16408;DHT22;8313;49.894;8.084;2023-02-13T15:56:59;11.80;99.90
16408;DHT22;8313;49.894;8.084;2023-02-13T15:59:34;11.80;99.90
16408;DHT22;8313;49.894;8.084;2023-02-13T16:02:01;11.80;99.90
16408;DHT22;8313;49.894;8.084;2023-02-13T16:04:28;11.80;99.90
16408;DHT22;8313;49.894;8.084;2023-02-13T16:06:55;11.80;99.90
16408;DHT22;8313;49.894;8.084;2023-02-13T16:09:32;11.80;99.90
16408;DHT22;8313;49.894;8.084;2023-02-13T16:12:22;11.70;99.90
16408;DHT22;8313;49.894;8.084;2023-02-13T16:14:59;11.70;99.90
16408;DHT22;8313;49.894;8.084;2023-02-13T16:17:29;11.70;99.90
16408;DHT22;8313;49.894;8.084;2023-02-13T16:19:59;11.60;99.90
16408;DHT22;8313;49.894;8.084;2023-02-13T16:22:38;11.60;99.90
16408;DHT22;8313;49.894;8.084;2023-02-13T16:27:46;11.40;99.90
16408;DHT22;8313;49.894;8.084;2023-02-13T16:30:58;11.40;99.90
16408;DHT22;8313;49.894;8.084;2023-02-13T16:33:34;11.30;99.90
16408;DHT22;8313;49.894;8.084;2023-02-13T16:46:30;10.90;99.90
16408;DHT22;8313;49.894;8.084;2023-02-13T16:51:41;10.70;99.90
16408;DHT22;8313;49.894;8.084;2023-02-13T16:56:37;10.60;99.90
16408;DHT22;8313;49.894;8.084;2023-02-13T16:59:24;10.50;99.90
16408;DHT22;8313;49.894;8.084;2023-02-13T17:02:10;10.50;99.90
16408;DHT22;8313;49.894;8.084;2023-02-13T17:04:37;10.40;99.90
16408;DHT22;8313;49.894;8.084;2023-02-13T17:07:04;10.30;99.90
16408;DHT22;8313;49.894;8.084;2023-02-13T17:09:34;10.30;99.90
16408;DHT22;8313;49.894;8.084;2023-02-13T17:12:00;10.20;99.90
16408;DHT22;8313;49.894;8.084;2023-02-13T17:14:25;10.20;99.90
16408;DHT22;8313;49.894;8.084;2023-02-13T17:16:51;10.20;99.90
16408;DHT22;8313;49.894;8.084;2023-02-13T17:19:17;10.10;99.90
16408;DHT22;8313;49.894;8.084;2023-02-13T17:21:42;10.10;99.90
16408;DHT22;8313;49.894;8.084;2023-02-13T17:24:13;9.90;99.90
16408;DHT22;8313;49.894;8.084;2023-02-13T17:26:41;9.90;99.90
16408;DHT22;8313;49.894;8.084;2023-02-13T17:29:06;9.80;99.90
16408;DHT22;8313;49.894;8.084;2023-02-13T17:31:32;9.80;99.90
16408;DHT22;8313;49.894;8.084;2023-02-13T17:33:58;9.80;99.90
16408;DHT22;8313;49.894;8.084;2023-02-13T17:36:24;9.80;99.90
16408;DHT22;8313;49.894;8.084;2023-02-13T17:38:49;9.70;99.90
16408;DHT22;8313;49.894;8.084;2023-02-13T17:41:15;9.70;99.90
16408;DHT22;8313;49.894;8.084;2023-02-13T17:43:41;9.60;99.90
16408;DHT22;8313;49.894;8.084;2023-02-13T17:46:06;9.60;99.90
16408;DHT22;8313;49.894;8.084;2023-02-13T17:48:33;9.60;99.90
16408;DHT22;8313;49.894;8.084;2023-02-13T17:50:58;9.50;99.90
16408;DHT22;8313;49.894;8.084;2023-02-13T17:53:28;9.40;99.90
16408;DHT22;8313;49.894;8.084;2023-02-13T17:55:54;9.20;99.90
16408;DHT22;8313;49.894;8.084;2023-02-13T17:58:20;9.20;99.90
16408;DHT22;8313;49.894;8.084;2023-02-13T18:00:46;9.10;99.90
16408;DHT22;8313;49.894;8.084;2023-02-13T18:03:12;9.00;99.90
16408;DHT22;8313;49.894;8.084;2023-02-13T18:05:38;9.10;99.90
16408;DHT22;8313;49.894;8.084;2023-02-13T18:08:04;9.10;99.90
16408;DHT22;8313;49.894;8.084;2023-02-13T18:10:32;9.10;99.90
16408;DHT22;8313;49.894;8.084;2023-02-13T18:12:58;9.10;99.90
16408;DHT22;8313;49.894;8.084;2023-02-13T18:15:39;9.00;99.90
16408;DHT22;8313;49.894;8.084;2023-02-13T18:18:05;9.00;99.90
16408;DHT22;8313;49.894;8.084;2023-02-13T18:20:31;8.90;99.90
16408;DHT22;8313;49.894;8.084;2023-02-13T18:22:57;8.80;99.90
16408;DHT22;8313;49.894;8.084;2023-02-13T18:25:23;8.80;99.90
16408;DHT22;8313;49.894;8.084;2023-02-13T18:27:49;8.80;99.90
16408;DHT22;8313;49.894;8.084;2023-02-13T18:30:18;8.70;99.90
16408;DHT22;8313;49.894;8.084;2023-02-13T18:32:44;8.70;99.90
16408;DHT22;8313;49.894;8.084;2023-02-13T18:35:11;8.70;99.90
16408;DHT22;8313;49.894;8.084;2023-02-13T18:37:37;8.70;99.90
16408;DHT22;8313;49.894;8.084;2023-02-13T18:40:08;8.60;99.90
16408;DHT22;8313;49.894;8.084;2023-02-13T18:42:34;8.70;99.90
16408;DHT22;8313;49.894;8.084;2023-02-13T18:45:01;8.60;99.90
16408;DHT22;8313;49.894;8.084;2023-02-13T18:47:27;8.60;99.90
16408;DHT22;8313;49.894;8.084;2023-02-13T18:49:52;8.60;99.90
16408;DHT22;8313;49.894;8.084;2023-02-13T18:52:18;8.50;99.90
16408;DHT22;8313;49.894;8.084;2023-02-13T18:54:44;8.50;99.90
16408;DHT22;8313;49.894;8.084;2023-02-13T18:57:10;8.50;99.90
16408;DHT22;8313;49.894;8.084;2023-02-13T18:59:36;8.50;99.90
16408;DHT22;8313;49.894;8.084;2023-02-13T19:02:01;8.40;99.90
16408;DHT22;8313;49.894;8.084;2023-02-13T19:04:27;8.40;99.90
16408;DHT22;8313;49.894;8.084;2023-02-13T19:06:53;8.40;99.90
16408;DHT22;8313;49.894;8.084;2023-02-13T19:09:18;8.40;99.90
16408;DHT22;8313;49.894;8.084;2023-02-13T19:11:44;8.30;99.90
16408;DHT22;8313;49.894;8.084;2023-02-13T19:14:12;8.30;99.90
16408;DHT22;8313;49.894;8.084;2023-02-13T19:16:39;8.20;99.90
16408;DHT22;8313;49.894;8.084;2023-02-13T19:19:06;8.20;99.90
16408;DHT22;8313;49.894;8.084;2023-02-13T19:21:34;8.10;99.90
16408;DHT22;8313;49.894;8.084;2023-02-13T19:24:06;8.10;99.90
16408;DHT22;8313;49.894;8.084;2023-02-13T19:26:33;8.00;99.90
16408;DHT22;8313;49.894;8.084;2023-02-13T19:28:59;8.00;99.90
16408;DHT22;8313;49.894;8.084;2023-02-13T19:31:26;8.00;99.90
16408;DHT22;8313;49.894;8.084;2023-02-13T19:33:52;8.00;99.90
16408;DHT22;8313;49.894;8.084;2023-02-13T19:36:21;7.90;99.90
16408;DHT22;8313;49.894;8.084;2023-02-13T19:38:51;7.90;99.90
16408;DHT22;8313;49.894;8.084;2023-02-13T19:41:17;7.80;99.90
16408;DHT22;8313;49.894;8.084;2023-02-13T19:43:44;7.80;99.90